sensor_id;sensor_type;location;lat;lon;timestamp;P1;durP1;ratioP1;P2;durP2;ratioP2
579;SDS011;276;48.392;9.950;2023-01-24T00:00:14;26.93;;;21.30;;
579;SDS011;276;48.392;9.950;2023-01-24T00:02:43;24.40;;;19.70;;
579;SDS011;276;48.392;9.950;2023-01-24T00:05:08;22.87;;;19.43;;
579;SDS011;276;48.392;9.950;2023-01-24T00:07:34;23.30;;;19.60;;
579;SDS011;276;48.392;9.950;2023-01-24T00:10:02;22.50;;;19.70;;
579;SDS011;276;48.392;9.950;2023-01-24T00:12:28;21.67;;;19.40;;
579;SDS011;276;48.392;9.950;2023-01-24T00:17:29;26.20;;;20.50;;
579;SDS011;276;48.392;9.950;2023-01-24T00:19:59;25.33;;;19.40;;
579;SDS011;276;48.392;9.950;2023-01-24T00:22:27;23.77;;;19.10;;
579;SDS011;276;48.392;9.950;2023-01-24T00:24:52;21.90;;;17.50;;
579;SDS011;276;48.392;9.950;2023-01-24T00:27:18;20.50;;;18.30;;
579;SDS011;276;48.392;9.950;2023-01-24T00:29:43;28.50;;;20.97;;
579;SDS011;276;48.392;9.950;2023-01-24T00:32:11;23.43;;;19.80;;
579;SDS011;276;48.392;9.950;2023-01-24T00:34:37;22.50;;;17.50;;
579;SDS011;276;48.392;9.950;2023-01-24T00:37:03;23.30;;;18.17;;
579;SDS011;276;48.392;9.950;2023-01-24T00:39:30;23.10;;;18.53;;
579;SDS011;276;48.392;9.950;2023-01-24T00:41:59;20.93;;;18.00;;
579;SDS011;276;48.392;9.950;2023-01-24T00:44:24;20.47;;;18.17;;
579;SDS011;276;48.392;9.950;2023-01-24T00:46:55;27.43;;;19.13;;
579;SDS011;276;48.392;9.950;2023-01-24T00:49:23;19.20;;;17.07;;
579;SDS011;276;48.392;9.950;2023-01-24T00:51:49;23.83;;;18.90;;
579;SDS011;276;48.392;9.950;2023-01-24T00:54:17;18.67;;;16.13;;
579;SDS011;276;48.392;9.950;2023-01-24T01:01:58;22.07;;;18.77;;
579;SDS011;276;48.392;9.950;2023-01-24T01:04:26;22.07;;;19.77;;
579;SDS011;276;48.392;9.950;2023-01-24T01:06:52;18.63;;;16.50;;
579;SDS011;276;48.392;9.950;2023-01-24T01:09:21;22.40;;;19.47;;
579;SDS011;276;48.392;9.950;2023-01-24T01:11:51;23.93;;;18.83;;
579;SDS011;276;48.392;9.950;2023-01-24T01:14:17;24.27;;;19.07;;
579;SDS011;276;48.392;9.950;2023-01-24T01:16:47;25.50;;;21.13;;
579;SDS011;276;48.392;9.950;2023-01-24T01:19:15;26.10;;;21.00;;
579;SDS011;276;48.392;9.950;2023-01-24T01:21:41;24.07;;;19.50;;
579;SDS011;276;48.392;9.950;2023-01-24T01:24:09;23.93;;;19.23;;
579;SDS011;276;48.392;9.950;2023-01-24T01:26:35;22.03;;;18.40;;
579;SDS011;276;48.392;9.950;2023-01-24T01:29:03;20.20;;;17.10;;
579;SDS011;276;48.392;9.950;2023-01-24T01:31:28;22.30;;;18.83;;
579;SDS011;276;48.392;9.950;2023-01-24T01:33:58;21.70;;;17.37;;
579;SDS011;276;48.392;9.950;2023-01-24T01:36:26;23.83;;;17.93;;
579;SDS011;276;48.392;9.950;2023-01-24T01:38:54;26.40;;;18.90;;
579;SDS011;276;48.392;9.950;2023-01-24T01:41:22;19.13;;;17.07;;
579;SDS011;276;48.392;9.950;2023-01-24T01:43:50;17.50;;;15.63;;
579;SDS011;276;48.392;9.950;2023-01-24T01:46:37;23.43;;;18.43;;
579;SDS011;276;48.392;9.950;2023-01-24T01:49:13;21.57;;;18.93;;
579;SDS011;276;48.392;9.950;2023-01-24T01:51:47;21.10;;;16.90;;
579;SDS011;276;48.392;9.950;2023-01-24T01:56:56;22.10;;;18.57;;
579;SDS011;276;48.392;9.950;2023-01-24T01:59:32;22.50;;;17.50;;
579;SDS011;276;48.392;9.950;2023-01-24T02:02:05;23.53;;;17.30;;
579;SDS011;276;48.392;9.950;2023-01-24T02:04:37;24.33;;;18.80;;
579;SDS011;276;48.392;9.950;2023-01-24T02:07:09;22.10;;;18.57;;
579;SDS011;276;48.392;9.950;2023-01-24T02:09:42;20.77;;;17.80;;
579;SDS011;276;48.392;9.950;2023-01-24T02:12:11;25.53;;;20.37;;
579;SDS011;276;48.392;9.950;2023-01-24T02:14:53;21.37;;;17.73;;
579;SDS011;276;48.392;9.950;2023-01-24T02:17:40;24.80;;;18.60;;
579;SDS011;276;48.392;9.950;2023-01-24T02:20:31;21.50;;;19.03;;
579;SDS011;276;48.392;9.950;2023-01-24T02:23:11;20.80;;;16.90;;
579;SDS011;276;48.392;9.950;2023-01-24T02:28:12;21.13;;;17.53;;
579;SDS011;276;48.392;9.950;2023-01-24T02:30:38;18.63;;;16.63;;
579;SDS011;276;48.392;9.950;2023-01-24T02:33:17;18.83;;;16.50;;
579;SDS011;276;48.392;9.950;2023-01-24T02:35:45;21.37;;;17.60;;
579;SDS011;276;48.392;9.950;2023-01-24T02:38:21;22.87;;;20.30;;
579;SDS011;276;48.392;9.950;2023-01-24T02:40:49;22.33;;;16.23;;
579;SDS011;276;48.392;9.950;2023-01-24T02:43:19;21.90;;;18.40;;
579;SDS011;276;48.392;9.950;2023-01-24T02:45:49;19.87;;;17.20;;
579;SDS011;276;48.392;9.950;2023-01-24T02:48:15;17.77;;;15.77;;
579;SDS011;276;48.392;9.950;2023-01-24T02:50:41;18.80;;;16.10;;
579;SDS011;276;48.392;9.950;2023-01-24T02:53:28;18.33;;;16.43;;
579;SDS011;276;48.392;9.950;2023-01-24T02:56:06;20.40;;;16.23;;
579;SDS011;276;48.392;9.950;2023-01-24T02:58:53;22.40;;;17.97;;
579;SDS011;276;48.392;9.950;2023-01-24T03:01:20;20.70;;;17.90;;
579;SDS011;276;48.392;9.950;2023-01-24T03:03:47;21.67;;;18.23;;
579;SDS011;276;48.392;9.950;2023-01-24T03:06:13;26.70;;;20.77;;
579;SDS011;276;48.392;9.950;2023-01-24T03:08:40;23.23;;;17.00;;
579;SDS011;276;48.392;9.950;2023-01-24T03:11:06;24.10;;;19.90;;
579;SDS011;276;48.392;9.950;2023-01-24T03:13:35;24.33;;;18.40;;
579;SDS011;276;48.392;9.950;2023-01-24T03:16:20;26.10;;;19.17;;
579;SDS011;276;48.392;9.950;2023-01-24T03:19:04;21.37;;;16.83;;
579;SDS011;276;48.392;9.950;2023-01-24T03:21:49;21.10;;;18.50;;
579;SDS011;276;48.392;9.950;2023-01-24T03:24:33;23.03;;;18.73;;
579;SDS011;276;48.392;9.950;2023-01-24T03:27:20;24.73;;;18.00;;
579;SDS011;276;48.392;9.950;2023-01-24T03:30:05;18.57;;;16.57;;
579;SDS011;276;48.392;9.950;2023-01-24T03:32:52;23.70;;;20.87;;
579;SDS011;276;48.392;9.950;2023-01-24T03:35:42;19.43;;;17.33;;
579;SDS011;276;48.392;9.950;2023-01-24T03:38:18;19.33;;;17.23;;
579;SDS011;276;48.392;9.950;2023-01-24T03:41:05;22.23;;;17.80;;
579;SDS011;276;48.392;9.950;2023-01-24T03:43:31;25.50;;;20.33;;
579;SDS011;276;48.392;9.950;2023-01-24T03:46:02;23.63;;;18.90;;
579;SDS011;276;48.392;9.950;2023-01-24T03:48:27;22.50;;;18.93;;
579;SDS011;276;48.392;9.950;2023-01-24T03:51:01;22.70;;;18.97;;
579;SDS011;276;48.392;9.950;2023-01-24T03:53:48;20.17;;;17.13;;
579;SDS011;276;48.392;9.950;2023-01-24T03:56:16;22.87;;;19.27;;
579;SDS011;276;48.392;9.950;2023-01-24T03:58:42;24.23;;;17.90;;
579;SDS011;276;48.392;9.950;2023-01-24T04:01:10;23.53;;;18.80;;
579;SDS011;276;48.392;9.950;2023-01-24T04:03:38;26.10;;;18.07;;
579;SDS011;276;48.392;9.950;2023-01-24T04:06:04;26.40;;;20.57;;
579;SDS011;276;48.392;9.950;2023-01-24T04:08:30;25.20;;;20.83;;
579;SDS011;276;48.392;9.950;2023-01-24T04:10:58;30.80;;;22.40;;
579;SDS011;276;48.392;9.950;2023-01-24T04:13:23;23.30;;;18.43;;
579;SDS011;276;48.392;9.950;2023-01-24T04:15:51;26.30;;;20.43;;
579;SDS011;276;48.392;9.950;2023-01-24T04:18:19;22.80;;;18.77;;
579;SDS011;276;48.392;9.950;2023-01-24T04:20:50;26.20;;;20.83;;
579;SDS011;276;48.392;9.950;2023-01-24T04:23:18;20.90;;;18.57;;
579;SDS011;276;48.392;9.950;2023-01-24T04:25:48;24.57;;;19.67;;
579;SDS011;276;48.392;9.950;2023-01-24T04:28:22;35.20;;;22.80;;
579;SDS011;276;48.392;9.950;2023-01-24T04:30:57;29.97;;;21.80;;
579;SDS011;276;48.392;9.950;2023-01-24T04:33:25;27.60;;;21.07;;
579;SDS011;276;48.392;9.950;2023-01-24T04:35:51;26.33;;;21.03;;
579;SDS011;276;48.392;9.950;2023-01-24T04:38:20;27.27;;;20.60;;
579;SDS011;276;48.392;9.950;2023-01-24T04:40:46;23.80;;;19.60;;
579;SDS011;276;48.392;9.950;2023-01-24T04:43:14;30.80;;;21.40;;
579;SDS011;276;48.392;9.950;2023-01-24T04:45:42;26.43;;;20.83;;
579;SDS011;276;48.392;9.950;2023-01-24T04:48:10;26.17;;;20.57;;
579;SDS011;276;48.392;9.950;2023-01-24T04:50:38;27.13;;;23.70;;
579;SDS011;276;48.392;9.950;2023-01-24T04:53:03;24.27;;;20.20;;
579;SDS011;276;48.392;9.950;2023-01-24T04:55:29;28.10;;;21.40;;
579;SDS011;276;48.392;9.950;2023-01-24T04:57:55;26.50;;;20.80;;
579;SDS011;276;48.392;9.950;2023-01-24T05:00:25;36.17;;;25.17;;
579;SDS011;276;48.392;9.950;2023-01-24T05:02:51;31.73;;;24.37;;
579;SDS011;276;48.392;9.950;2023-01-24T05:05:16;29.33;;;23.37;;
579;SDS011;276;48.392;9.950;2023-01-24T05:07:42;32.77;;;23.73;;
579;SDS011;276;48.392;9.950;2023-01-24T05:10:10;29.70;;;22.10;;
579;SDS011;276;48.392;9.950;2023-01-24T05:12:36;22.47;;;18.47;;
579;SDS011;276;48.392;9.950;2023-01-24T05:15:07;26.83;;;21.03;;
579;SDS011;276;48.392;9.950;2023-01-24T05:17:33;26.00;;;20.87;;
579;SDS011;276;48.392;9.950;2023-01-24T05:20:03;28.60;;;22.90;;
579;SDS011;276;48.392;9.950;2023-01-24T05:22:31;26.17;;;21.57;;
579;SDS011;276;48.392;9.950;2023-01-24T05:24:59;28.00;;;22.57;;
579;SDS011;276;48.392;9.950;2023-01-24T05:27:25;27.37;;;22.00;;
579;SDS011;276;48.392;9.950;2023-01-24T05:29:53;27.50;;;21.93;;
579;SDS011;276;48.392;9.950;2023-01-24T05:32:23;26.93;;;22.37;;
579;SDS011;276;48.392;9.950;2023-01-24T05:34:54;26.40;;;21.37;;
579;SDS011;276;48.392;9.950;2023-01-24T05:37:35;24.63;;;20.33;;
579;SDS011;276;48.392;9.950;2023-01-24T05:40:05;25.33;;;22.40;;
579;SDS011;276;48.392;9.950;2023-01-24T05:42:34;25.40;;;22.00;;
579;SDS011;276;48.392;9.950;2023-01-24T05:45:07;26.37;;;21.70;;
579;SDS011;276;48.392;9.950;2023-01-24T05:47:36;19.40;;;17.30;;
579;SDS011;276;48.392;9.950;2023-01-24T05:50:02;23.77;;;20.27;;
579;SDS011;276;48.392;9.950;2023-01-24T05:52:31;26.30;;;20.70;;
579;SDS011;276;48.392;9.950;2023-01-24T05:54:56;21.57;;;18.67;;
579;SDS011;276;48.392;9.950;2023-01-24T05:57:24;22.67;;;18.50;;
579;SDS011;276;48.392;9.950;2023-01-24T05:59:50;19.33;;;17.40;;
579;SDS011;276;48.392;9.950;2023-01-24T06:02:15;20.87;;;17.23;;
579;SDS011;276;48.392;9.950;2023-01-24T06:04:46;19.17;;;17.17;;
579;SDS011;276;48.392;9.950;2023-01-24T06:07:11;21.10;;;18.17;;
579;SDS011;276;48.392;9.950;2023-01-24T06:09:42;18.53;;;16.63;;
579;SDS011;276;48.392;9.950;2023-01-24T06:12:07;19.73;;;16.87;;
579;SDS011;276;48.392;9.950;2023-01-24T06:14:35;24.90;;;19.10;;
579;SDS011;276;48.392;9.950;2023-01-24T06:17:00;22.43;;;18.47;;
579;SDS011;276;48.392;9.950;2023-01-24T06:19:26;20.20;;;16.00;;
579;SDS011;276;48.392;9.950;2023-01-24T06:24:26;18.67;;;16.40;;
579;SDS011;276;48.392;9.950;2023-01-24T06:26:54;19.30;;;17.30;;
579;SDS011;276;48.392;9.950;2023-01-24T06:29:21;18.57;;;16.47;;
579;SDS011;276;48.392;9.950;2023-01-24T06:31:50;21.93;;;18.23;;
579;SDS011;276;48.392;9.950;2023-01-24T06:39:45;18.17;;;15.23;;
579;SDS011;276;48.392;9.950;2023-01-24T06:42:19;18.70;;;16.50;;
579;SDS011;276;48.392;9.950;2023-01-24T06:44:46;16.23;;;13.67;;
579;SDS011;276;48.392;9.950;2023-01-24T06:47:12;19.97;;;16.83;;
579;SDS011;276;48.392;9.950;2023-01-24T06:49:39;20.03;;;17.40;;
579;SDS011;276;48.392;9.950;2023-01-24T06:52:05;21.47;;;18.20;;
579;SDS011;276;48.392;9.950;2023-01-24T06:54:38;19.37;;;16.93;;
579;SDS011;276;48.392;9.950;2023-01-24T06:57:04;19.97;;;17.77;;
579;SDS011;276;48.392;9.950;2023-01-24T06:59:34;20.67;;;16.10;;
579;SDS011;276;48.392;9.950;2023-01-24T07:02:00;18.17;;;15.50;;
579;SDS011;276;48.392;9.950;2023-01-24T07:04:26;19.40;;;16.17;;
579;SDS011;276;48.392;9.950;2023-01-24T07:06:51;18.83;;;16.27;;
579;SDS011;276;48.392;9.950;2023-01-24T07:09:18;21.90;;;18.70;;
579;SDS011;276;48.392;9.950;2023-01-24T07:11:49;26.00;;;19.60;;
579;SDS011;276;48.392;9.950;2023-01-24T07:14:22;25.20;;;19.53;;
579;SDS011;276;48.392;9.950;2023-01-24T07:16:48;29.27;;;20.30;;
579;SDS011;276;48.392;9.950;2023-01-24T07:19:17;31.20;;;18.80;;
579;SDS011;276;48.392;9.950;2023-01-24T07:21:47;21.30;;;17.73;;
579;SDS011;276;48.392;9.950;2023-01-24T07:24:18;21.13;;;16.87;;
579;SDS011;276;48.392;9.950;2023-01-24T07:26:49;24.00;;;16.30;;
579;SDS011;276;48.392;9.950;2023-01-24T07:29:20;22.90;;;18.43;;
579;SDS011;276;48.392;9.950;2023-01-24T07:31:51;19.63;;;17.60;;
579;SDS011;276;48.392;9.950;2023-01-24T07:34:20;20.80;;;17.70;;
579;SDS011;276;48.392;9.950;2023-01-24T07:36:48;23.63;;;19.43;;
579;SDS011;276;48.392;9.950;2023-01-24T07:39:19;24.47;;;20.47;;
579;SDS011;276;48.392;9.950;2023-01-24T07:41:44;20.13;;;17.50;;
579;SDS011;276;48.392;9.950;2023-01-24T07:44:11;25.13;;;21.63;;
579;SDS011;276;48.392;9.950;2023-01-24T07:46:39;23.47;;;19.80;;
579;SDS011;276;48.392;9.950;2023-01-24T07:49:05;22.27;;;17.73;;
579;SDS011;276;48.392;9.950;2023-01-24T07:51:30;19.80;;;17.70;;
579;SDS011;276;48.392;9.950;2023-01-24T07:53:58;22.17;;;18.40;;
579;SDS011;276;48.392;9.950;2023-01-24T07:56:24;25.03;;;17.40;;
579;SDS011;276;48.392;9.950;2023-01-24T07:58:49;20.30;;;16.60;;
579;SDS011;276;48.392;9.950;2023-01-24T08:01:18;16.93;;;15.17;;
579;SDS011;276;48.392;9.950;2023-01-24T08:03:47;20.80;;;15.80;;
579;SDS011;276;48.392;9.950;2023-01-24T08:06:14;21.83;;;16.97;;
579;SDS011;276;48.392;9.950;2023-01-24T08:08:40;17.67;;;15.37;;
579;SDS011;276;48.392;9.950;2023-01-24T08:11:07;21.53;;;15.37;;
579;SDS011;276;48.392;9.950;2023-01-24T08:13:43;25.27;;;19.27;;
579;SDS011;276;48.392;9.950;2023-01-24T08:16:12;21.73;;;17.87;;
579;SDS011;276;48.392;9.950;2023-01-24T08:18:43;18.63;;;14.47;;
579;SDS011;276;48.392;9.950;2023-01-24T08:21:09;17.70;;;13.57;;
579;SDS011;276;48.392;9.950;2023-01-24T08:23:35;17.07;;;15.30;;
579;SDS011;276;48.392;9.950;2023-01-24T08:26:03;17.03;;;14.00;;
579;SDS011;276;48.392;9.950;2023-01-24T08:28:33;21.10;;;14.53;;
579;SDS011;276;48.392;9.950;2023-01-24T08:31:00;18.23;;;14.40;;
579;SDS011;276;48.392;9.950;2023-01-24T08:33:28;17.40;;;14.37;;
579;SDS011;276;48.392;9.950;2023-01-24T08:35:54;15.43;;;13.70;;
579;SDS011;276;48.392;9.950;2023-01-24T08:38:20;16.97;;;14.03;;
579;SDS011;276;48.392;9.950;2023-01-24T08:40:45;15.40;;;13.07;;
579;SDS011;276;48.392;9.950;2023-01-24T08:43:11;14.03;;;12.63;;
579;SDS011;276;48.392;9.950;2023-01-24T08:45:39;15.17;;;13.67;;
579;SDS011;276;48.392;9.950;2023-01-24T08:48:07;15.73;;;14.20;;
579;SDS011;276;48.392;9.950;2023-01-24T08:50:35;13.80;;;12.50;;
579;SDS011;276;48.392;9.950;2023-01-24T08:53:00;16.40;;;14.70;;
579;SDS011;276;48.392;9.950;2023-01-24T08:55:26;17.70;;;15.80;;
579;SDS011;276;48.392;9.950;2023-01-24T08:57:56;19.30;;;15.57;;
579;SDS011;276;48.392;9.950;2023-01-24T09:00:24;15.47;;;13.87;;
579;SDS011;276;48.392;9.950;2023-01-24T09:02:50;14.93;;;13.43;;
579;SDS011;276;48.392;9.950;2023-01-24T09:05:18;14.87;;;12.70;;
579;SDS011;276;48.392;9.950;2023-01-24T09:07:43;12.87;;;11.37;;
579;SDS011;276;48.392;9.950;2023-01-24T09:10:13;25.37;;;14.17;;
579;SDS011;276;48.392;9.950;2023-01-24T09:12:41;13.00;;;11.70;;
579;SDS011;276;48.392;9.950;2023-01-24T09:15:06;15.70;;;13.90;;
579;SDS011;276;48.392;9.950;2023-01-24T09:17:36;15.30;;;12.53;;
579;SDS011;276;48.392;9.950;2023-01-24T09:20:05;13.60;;;10.90;;
579;SDS011;276;48.392;9.950;2023-01-24T09:22:36;15.37;;;13.70;;
579;SDS011;276;48.392;9.950;2023-01-24T09:25:02;13.13;;;11.73;;
579;SDS011;276;48.392;9.950;2023-01-24T09:27:28;16.13;;;13.93;;
579;SDS011;276;48.392;9.950;2023-01-24T09:29:54;14.57;;;12.27;;
579;SDS011;276;48.392;9.950;2023-01-24T09:32:20;13.50;;;12.10;;
579;SDS011;276;48.392;9.950;2023-01-24T09:34:47;15.00;;;13.40;;
579;SDS011;276;48.392;9.950;2023-01-24T09:37:18;15.80;;;13.20;;
579;SDS011;276;48.392;9.950;2023-01-24T09:39:46;13.90;;;12.50;;
579;SDS011;276;48.392;9.950;2023-01-24T09:42:15;15.70;;;12.80;;
579;SDS011;276;48.392;9.950;2023-01-24T09:45:14;20.00;;;12.47;;
579;SDS011;276;48.392;9.950;2023-01-24T09:50:27;14.37;;;12.43;;
579;SDS011;276;48.392;9.950;2023-01-24T09:53:24;14.77;;;13.17;;
579;SDS011;276;48.392;9.950;2023-01-24T09:55:57;16.17;;;14.47;;
579;SDS011;276;48.392;9.950;2023-01-24T10:00:55;17.03;;;14.40;;
579;SDS011;276;48.392;9.950;2023-01-24T10:03:25;18.33;;;13.40;;
579;SDS011;276;48.392;9.950;2023-01-24T10:05:52;14.53;;;13.10;;
579;SDS011;276;48.392;9.950;2023-01-24T10:18:51;16.10;;;13.63;;
579;SDS011;276;48.392;9.950;2023-01-24T10:22:07;14.53;;;12.43;;
579;SDS011;276;48.392;9.950;2023-01-24T10:24:39;13.37;;;11.93;;
579;SDS011;276;48.392;9.950;2023-01-24T10:27:15;12.87;;;11.23;;
579;SDS011;276;48.392;9.950;2023-01-24T10:29:45;14.17;;;12.67;;
579;SDS011;276;48.392;9.950;2023-01-24T10:32:18;13.50;;;12.23;;
579;SDS011;276;48.392;9.950;2023-01-24T10:34:56;16.23;;;13.97;;
579;SDS011;276;48.392;9.950;2023-01-24T10:37:43;12.57;;;11.27;;
579;SDS011;276;48.392;9.950;2023-01-24T10:40:15;14.43;;;11.83;;
579;SDS011;276;48.392;9.950;2023-01-24T10:42:44;13.07;;;11.67;;
579;SDS011;276;48.392;9.950;2023-01-24T10:47:52;18.03;;;13.97;;
579;SDS011;276;48.392;9.950;2023-01-24T10:50:33;13.57;;;12.17;;
579;SDS011;276;48.392;9.950;2023-01-24T10:53:11;12.50;;;11.20;;
579;SDS011;276;48.392;9.950;2023-01-24T10:55:47;12.53;;;11.30;;
579;SDS011;276;48.392;9.950;2023-01-24T10:58:25;14.17;;;12.63;;
579;SDS011;276;48.392;9.950;2023-01-24T11:00:56;13.07;;;11.73;;
579;SDS011;276;48.392;9.950;2023-01-24T11:03:28;13.50;;;12.17;;
579;SDS011;276;48.392;9.950;2023-01-24T11:05:56;13.23;;;11.83;;
579;SDS011;276;48.392;9.950;2023-01-24T11:08:24;14.17;;;12.17;;
579;SDS011;276;48.392;9.950;2023-01-24T11:10:57;12.73;;;11.27;;
579;SDS011;276;48.392;9.950;2023-01-24T11:13:34;12.23;;;10.80;;
579;SDS011;276;48.392;9.950;2023-01-24T11:18:30;14.93;;;11.60;;
579;SDS011;276;48.392;9.950;2023-01-24T11:21:09;13.13;;;11.20;;
579;SDS011;276;48.392;9.950;2023-01-24T11:23:37;13.30;;;12.03;;
579;SDS011;276;48.392;9.950;2023-01-24T11:26:05;13.20;;;11.90;;
579;SDS011;276;48.392;9.950;2023-01-24T11:28:48;15.97;;;12.27;;
579;SDS011;276;48.392;9.950;2023-01-24T11:31:29;14.80;;;13.00;;
579;SDS011;276;48.392;9.950;2023-01-24T11:39:40;13.03;;;11.87;;
579;SDS011;276;48.392;9.950;2023-01-24T11:42:20;13.60;;;11.97;;
579;SDS011;276;48.392;9.950;2023-01-24T11:45:13;13.00;;;11.60;;
579;SDS011;276;48.392;9.950;2023-01-24T11:47:53;12.23;;;10.97;;
579;SDS011;276;48.392;9.950;2023-01-24T11:50:50;12.03;;;10.83;;
579;SDS011;276;48.392;9.950;2023-01-24T11:53:41;13.97;;;10.60;;
579;SDS011;276;48.392;9.950;2023-01-24T11:59:34;11.60;;;10.40;;
579;SDS011;276;48.392;9.950;2023-01-24T12:12:43;12.07;;;10.87;;
579;SDS011;276;48.392;9.950;2023-01-24T12:17:53;10.90;;;9.80;;
579;SDS011;276;48.392;9.950;2023-01-24T12:26:05;13.20;;;11.90;;
579;SDS011;276;48.392;9.950;2023-01-24T12:31:54;15.03;;;13.33;;
579;SDS011;276;48.392;9.950;2023-01-24T12:45:42;24.47;;;17.30;;
579;SDS011;276;48.392;9.950;2023-01-24T12:48:46;13.50;;;12.20;;
579;SDS011;276;48.392;9.950;2023-01-24T12:51:24;17.37;;;14.97;;
579;SDS011;276;48.392;9.950;2023-01-24T12:59:25;16.07;;;14.37;;
579;SDS011;276;48.392;9.950;2023-01-24T13:12:48;14.80;;;13.00;;
579;SDS011;276;48.392;9.950;2023-01-24T13:15:20;19.27;;;12.90;;
579;SDS011;276;48.392;9.950;2023-01-24T13:31:51;13.50;;;12.20;;
579;SDS011;276;48.392;9.950;2023-01-24T13:34:30;17.03;;;12.57;;
579;SDS011;276;48.392;9.950;2023-01-24T13:37:04;19.83;;;15.57;;
579;SDS011;276;48.392;9.950;2023-01-24T13:39:35;22.20;;;14.90;;
579;SDS011;276;48.392;9.950;2023-01-24T13:42:18;15.97;;;12.83;;
579;SDS011;276;48.392;9.950;2023-01-24T13:44:51;12.23;;;10.93;;
579;SDS011;276;48.392;9.950;2023-01-24T13:49:46;12.67;;;10.20;;
579;SDS011;276;48.392;9.950;2023-01-24T13:54:57;13.53;;;11.90;;
579;SDS011;276;48.392;9.950;2023-01-24T14:03:01;12.43;;;11.10;;
579;SDS011;276;48.392;9.950;2023-01-24T14:05:51;15.40;;;11.53;;
579;SDS011;276;48.392;9.950;2023-01-24T14:08:32;12.57;;;10.97;;
579;SDS011;276;48.392;9.950;2023-01-24T14:18:58;21.80;;;13.77;;
579;SDS011;276;48.392;9.950;2023-01-24T14:22:19;15.93;;;11.20;;
579;SDS011;276;48.392;9.950;2023-01-24T14:27:20;13.80;;;12.30;;
579;SDS011;276;48.392;9.950;2023-01-24T14:33:01;11.07;;;10.07;;
579;SDS011;276;48.392;9.950;2023-01-24T14:35:51;13.60;;;12.17;;
579;SDS011;276;48.392;9.950;2023-01-24T14:38:23;14.40;;;12.50;;
579;SDS011;276;48.392;9.950;2023-01-24T14:40:49;14.77;;;12.10;;
579;SDS011;276;48.392;9.950;2023-01-24T14:43:19;14.23;;;12.73;;
579;SDS011;276;48.392;9.950;2023-01-24T14:45:48;15.50;;;12.53;;
579;SDS011;276;48.392;9.950;2023-01-24T14:48:16;12.33;;;11.13;;
579;SDS011;276;48.392;9.950;2023-01-24T14:50:55;13.63;;;12.23;;
579;SDS011;276;48.392;9.950;2023-01-24T14:53:29;12.97;;;11.67;;
579;SDS011;276;48.392;9.950;2023-01-24T14:56:00;14.30;;;12.90;;
579;SDS011;276;48.392;9.950;2023-01-24T14:58:38;13.70;;;12.20;;
579;SDS011;276;48.392;9.950;2023-01-24T15:01:03;12.80;;;11.20;;
579;SDS011;276;48.392;9.950;2023-01-24T15:04:02;12.87;;;11.40;;
579;SDS011;276;48.392;9.950;2023-01-24T15:06:29;13.73;;;11.87;;
579;SDS011;276;48.392;9.950;2023-01-24T15:08:59;14.70;;;12.73;;
579;SDS011;276;48.392;9.950;2023-01-24T15:11:31;13.97;;;12.50;;
579;SDS011;276;48.392;9.950;2023-01-24T15:14:04;14.47;;;12.50;;
579;SDS011;276;48.392;9.950;2023-01-24T15:16:33;15.43;;;13.80;;
579;SDS011;276;48.392;9.950;2023-01-24T15:19:10;14.83;;;12.10;;
579;SDS011;276;48.392;9.950;2023-01-24T15:21:55;15.10;;;13.50;;
579;SDS011;276;48.392;9.950;2023-01-24T15:24:24;15.73;;;12.90;;
579;SDS011;276;48.392;9.950;2023-01-24T15:26:50;13.90;;;12.60;;
579;SDS011;276;48.392;9.950;2023-01-24T15:29:36;13.10;;;11.57;;
579;SDS011;276;48.392;9.950;2023-01-24T15:35:18;15.57;;;12.40;;
579;SDS011;276;48.392;9.950;2023-01-24T15:37:59;18.40;;;14.93;;
579;SDS011;276;48.392;9.950;2023-01-24T15:40:45;19.00;;;16.97;;
579;SDS011;276;48.392;9.950;2023-01-24T15:46:36;23.80;;;19.30;;
579;SDS011;276;48.392;9.950;2023-01-24T15:49:38;16.40;;;14.87;;
579;SDS011;276;48.392;9.950;2023-01-24T15:54:34;16.70;;;12.73;;
579;SDS011;276;48.392;9.950;2023-01-24T15:57:01;14.50;;;12.90;;
579;SDS011;276;48.392;9.950;2023-01-24T15:59:42;12.30;;;11.17;;
579;SDS011;276;48.392;9.950;2023-01-24T16:02:12;13.40;;;12.20;;
579;SDS011;276;48.392;9.950;2023-01-24T16:04:39;14.57;;;13.10;;
579;SDS011;276;48.392;9.950;2023-01-24T16:07:06;14.13;;;12.63;;
579;SDS011;276;48.392;9.950;2023-01-24T16:09:34;13.80;;;12.30;;
579;SDS011;276;48.392;9.950;2023-01-24T16:11:59;13.07;;;11.70;;
579;SDS011;276;48.392;9.950;2023-01-24T16:14:28;15.67;;;13.90;;
579;SDS011;276;48.392;9.950;2023-01-24T16:16:55;18.53;;;15.40;;
579;SDS011;276;48.392;9.950;2023-01-24T16:19:24;15.57;;;13.93;;
579;SDS011;276;48.392;9.950;2023-01-24T16:21:50;15.97;;;14.37;;
579;SDS011;276;48.392;9.950;2023-01-24T16:24:18;17.77;;;15.97;;
579;SDS011;276;48.392;9.950;2023-01-24T16:26:48;16.50;;;14.93;;
579;SDS011;276;48.392;9.950;2023-01-24T16:29:21;13.70;;;12.40;;
579;SDS011;276;48.392;9.950;2023-01-24T16:31:49;15.63;;;13.97;;
579;SDS011;276;48.392;9.950;2023-01-24T16:34:17;15.97;;;14.37;;
579;SDS011;276;48.392;9.950;2023-01-24T16:36:43;15.77;;;13.67;;
579;SDS011;276;48.392;9.950;2023-01-24T16:39:15;16.97;;;15.47;;
579;SDS011;276;48.392;9.950;2023-01-24T16:41:45;14.23;;;12.93;;
579;SDS011;276;48.392;9.950;2023-01-24T16:44:12;15.10;;;13.63;;
579;SDS011;276;48.392;9.950;2023-01-24T16:46:39;25.60;;;21.33;;
579;SDS011;276;48.392;9.950;2023-01-24T16:49:05;16.60;;;14.87;;
579;SDS011;276;48.392;9.950;2023-01-24T16:51:33;19.53;;;15.60;;
579;SDS011;276;48.392;9.950;2023-01-24T16:54:01;18.57;;;16.63;;
579;SDS011;276;48.392;9.950;2023-01-24T16:56:27;16.83;;;15.03;;
579;SDS011;276;48.392;9.950;2023-01-24T16:58:54;18.60;;;16.17;;
579;SDS011;276;48.392;9.950;2023-01-24T17:01:20;19.03;;;17.00;;
579;SDS011;276;48.392;9.950;2023-01-24T17:03:49;16.80;;;15.10;;
579;SDS011;276;48.392;9.950;2023-01-24T17:06:16;15.93;;;14.17;;
579;SDS011;276;48.392;9.950;2023-01-24T17:08:42;17.40;;;15.60;;
579;SDS011;276;48.392;9.950;2023-01-24T17:11:09;34.80;;;31.60;;
579;SDS011;276;48.392;9.950;2023-01-24T17:13:38;21.87;;;19.57;;
579;SDS011;276;48.392;9.950;2023-01-24T17:16:07;24.80;;;22.23;;
579;SDS011;276;48.392;9.950;2023-01-24T17:18:34;18.90;;;17.10;;
579;SDS011;276;48.392;9.950;2023-01-24T17:21:04;17.60;;;15.90;;
579;SDS011;276;48.392;9.950;2023-01-24T17:23:31;19.60;;;17.67;;
579;SDS011;276;48.392;9.950;2023-01-24T17:26:03;17.77;;;15.97;;
579;SDS011;276;48.392;9.950;2023-01-24T17:28:30;16.93;;;15.10;;
579;SDS011;276;48.392;9.950;2023-01-24T17:30:56;17.10;;;15.23;;
579;SDS011;276;48.392;9.950;2023-01-24T17:33:24;18.07;;;16.30;;
579;SDS011;276;48.392;9.950;2023-01-24T17:35:50;15.90;;;14.30;;
579;SDS011;276;48.392;9.950;2023-01-24T17:38:16;19.37;;;16.70;;
579;SDS011;276;48.392;9.950;2023-01-24T17:40:44;19.53;;;16.73;;
579;SDS011;276;48.392;9.950;2023-01-24T17:43:11;21.10;;;17.20;;
579;SDS011;276;48.392;9.950;2023-01-24T17:45:39;21.67;;;18.70;;
579;SDS011;276;48.392;9.950;2023-01-24T17:48:05;21.43;;;16.90;;
579;SDS011;276;48.392;9.950;2023-01-24T17:50:30;17.77;;;15.73;;
579;SDS011;276;48.392;9.950;2023-01-24T17:52:58;18.90;;;16.80;;
579;SDS011;276;48.392;9.950;2023-01-24T17:55:24;15.50;;;14.10;;
579;SDS011;276;48.392;9.950;2023-01-24T17:57:53;14.57;;;12.87;;
579;SDS011;276;48.392;9.950;2023-01-24T18:00:19;20.77;;;15.87;;
579;SDS011;276;48.392;9.950;2023-01-24T18:02:45;16.83;;;15.23;;
579;SDS011;276;48.392;9.950;2023-01-24T18:05:13;15.40;;;13.83;;